Hundvaag 1 weather for Nov 1995
Month no. 101
Obs.
Da.
Temp. Dew Point Precip. Wind
Speed
Wind gusts Cloud cover Press. Humidity Wind dir. Sunny OPT
01.11.1995 6,1   2,3     1       1  
02.11.1995 4,9   0,0     1          
03.11.1995 4,4   3,9     10       1  
04.11.1995 -0,6   0,0     10       1  
05.11.1995 9,6   5,2     0          
06.11.1995 4,6   1,4     1          
07.11.1995 8,6   0,0     0          
08.11.1995 8,4   2,0     0          
09.11.1995 3,2   8,2     10       1  
10.11.1995 1,4   0,0     10          
11.11.1995 3,7   0,0     3       1  
12.11.1995 0,9   0,0     10       1  
13.11.1995 -2,4   0,0     10          
14.11.1995 2,8   2,2     0          
15.11.1995 3,5   3,2     9          
16.11.1995 0,5   0,0     0          
17.11.1995 0,3   0,0     10       1  
18.11.1995 -0,3   0,1     0       1  
19.11.1995 1,1   4,7     7          
20.11.1995 0,0   0,0     1          
21.11.1995 5,0   0,0     0          
22.11.1995 7,1   0,0     0          
23.11.1995 7,3   9,9     0          
24.11.1995 9,3   17,9     0          
25.11.1995 9,2   12,5     0          
26.11.1995 9,1   5,2     0          
27.11.1995 7,1   0,6     9          
28.11.1995 5,2   3,4     0          
29.11.1995 5,8   3,3     0          
30.11.1995 2,1   0,0     10          
                       
Avrg/Sum 4,3   86,0     3,7       8